sensor_id;sensor_type;location;lat;lon;timestamp;P1;durP1;ratioP1;P2;durP2;ratioP2
43807;SDS011;29438;50.664;10.098;2023-04-03T00:00:06;3.97;;;1.02;;
43807;SDS011;29438;50.664;10.098;2023-04-03T00:02:32;2.85;;;0.60;;
43807;SDS011;29438;50.664;10.098;2023-04-03T00:04:57;3.28;;;1.00;;
43807;SDS011;29438;50.664;10.098;2023-04-03T00:07:23;3.25;;;0.93;;
43807;SDS011;29438;50.664;10.098;2023-04-03T00:09:48;4.57;;;0.93;;
43807;SDS011;29438;50.664;10.098;2023-04-03T00:12:14;3.70;;;0.98;;
43807;SDS011;29438;50.664;10.098;2023-04-03T00:14:40;4.10;;;1.23;;
43807;SDS011;29438;50.664;10.098;2023-04-03T00:17:05;4.43;;;0.90;;
43807;SDS011;29438;50.664;10.098;2023-04-03T00:19:31;3.60;;;0.90;;
43807;SDS011;29438;50.664;10.098;2023-04-03T00:21:56;2.85;;;0.68;;
43807;SDS011;29438;50.664;10.098;2023-04-03T00:24:22;2.50;;;1.08;;
43807;SDS011;29438;50.664;10.098;2023-04-03T00:26:47;1.95;;;0.82;;
43807;SDS011;29438;50.664;10.098;2023-04-03T00:29:13;3.92;;;1.10;;
43807;SDS011;29438;50.664;10.098;2023-04-03T00:31:38;1.88;;;0.55;;
43807;SDS011;29438;50.664;10.098;2023-04-03T00:34:05;1.92;;;0.68;;
43807;SDS011;29438;50.664;10.098;2023-04-03T00:36:31;3.28;;;0.90;;
43807;SDS011;29438;50.664;10.098;2023-04-03T00:38:56;4.55;;;0.77;;
43807;SDS011;29438;50.664;10.098;2023-04-03T00:41:22;3.42;;;0.70;;
43807;SDS011;29438;50.664;10.098;2023-04-03T00:43:47;4.10;;;0.73;;
43807;SDS011;29438;50.664;10.098;2023-04-03T00:46:13;4.63;;;0.68;;
43807;SDS011;29438;50.664;10.098;2023-04-03T00:48:42;7.25;;;0.98;;
43807;SDS011;29438;50.664;10.098;2023-04-03T00:51:11;2.50;;;0.82;;
43807;SDS011;29438;50.664;10.098;2023-04-03T00:56:30;5.93;;;1.10;;
43807;SDS011;29438;50.664;10.098;2023-04-03T00:59:00;2.67;;;0.63;;
43807;SDS011;29438;50.664;10.098;2023-04-03T01:01:35;2.83;;;1.02;;
43807;SDS011;29438;50.664;10.098;2023-04-03T01:04:01;5.03;;;0.93;;
43807;SDS011;29438;50.664;10.098;2023-04-03T01:06:29;4.22;;;0.82;;
43807;SDS011;29438;50.664;10.098;2023-04-03T01:08:59;3.05;;;0.73;;
43807;SDS011;29438;50.664;10.098;2023-04-03T01:11:25;7.18;;;0.90;;
43807;SDS011;29438;50.664;10.098;2023-04-03T01:13:51;0.90;;;0.38;;
43807;SDS011;29438;50.664;10.098;2023-04-03T01:16:17;4.53;;;0.70;;
43807;SDS011;29438;50.664;10.098;2023-04-03T01:18:43;3.25;;;0.82;;
43807;SDS011;29438;50.664;10.098;2023-04-03T01:27:07;3.28;;;0.82;;
43807;SDS011;29438;50.664;10.098;2023-04-03T01:29:35;1.92;;;0.80;;
43807;SDS011;29438;50.664;10.098;2023-04-03T01:32:02;2.28;;;0.60;;
43807;SDS011;29438;50.664;10.098;2023-04-03T01:34:29;2.30;;;0.77;;
43807;SDS011;29438;50.664;10.098;2023-04-03T01:36:56;2.75;;;0.85;;
43807;SDS011;29438;50.664;10.098;2023-04-03T01:39:21;3.80;;;0.85;;
43807;SDS011;29438;50.664;10.098;2023-04-03T01:41:48;3.20;;;1.13;;
43807;SDS011;29438;50.664;10.098;2023-04-03T01:44:14;3.35;;;1.27;;
43807;SDS011;29438;50.664;10.098;2023-04-03T01:46:39;4.18;;;1.25;;
43807;SDS011;29438;50.664;10.098;2023-04-03T01:49:07;7.40;;;1.63;;
43807;SDS011;29438;50.664;10.098;2023-04-03T01:51:33;4.25;;;1.35;;
43807;SDS011;29438;50.664;10.098;2023-04-03T01:53:58;6.00;;;1.15;;
43807;SDS011;29438;50.664;10.098;2023-04-03T01:56:24;4.85;;;1.38;;
43807;SDS011;29438;50.664;10.098;2023-04-03T01:58:50;3.75;;;1.30;;
43807;SDS011;29438;50.664;10.098;2023-04-03T02:01:15;2.10;;;1.00;;
43807;SDS011;29438;50.664;10.098;2023-04-03T02:03:41;3.78;;;1.40;;
43807;SDS011;29438;50.664;10.098;2023-04-03T02:06:06;3.75;;;1.20;;
43807;SDS011;29438;50.664;10.098;2023-04-03T02:08:32;3.45;;;1.63;;
43807;SDS011;29438;50.664;10.098;2023-04-03T02:10:57;3.03;;;1.10;;
43807;SDS011;29438;50.664;10.098;2023-04-03T02:13:23;5.85;;;2.45;;
43807;SDS011;29438;50.664;10.098;2023-04-03T02:15:48;4.85;;;1.75;;
43807;SDS011;29438;50.664;10.098;2023-04-03T02:18:14;4.63;;;1.70;;
43807;SDS011;29438;50.664;10.098;2023-04-03T02:20:40;5.38;;;1.80;;
43807;SDS011;29438;50.664;10.098;2023-04-03T02:23:05;5.75;;;2.10;;
43807;SDS011;29438;50.664;10.098;2023-04-03T02:25:31;4.43;;;1.35;;
43807;SDS011;29438;50.664;10.098;2023-04-03T02:27:57;2.88;;;1.42;;
43807;SDS011;29438;50.664;10.098;2023-04-03T02:30:23;3.88;;;1.85;;
43807;SDS011;29438;50.664;10.098;2023-04-03T02:32:49;3.42;;;1.10;;
43807;SDS011;29438;50.664;10.098;2023-04-03T02:35:15;5.32;;;1.63;;
43807;SDS011;29438;50.664;10.098;2023-04-03T02:37:40;5.43;;;1.40;;
43807;SDS011;29438;50.664;10.098;2023-04-03T02:40:06;4.63;;;1.35;;
43807;SDS011;29438;50.664;10.098;2023-04-03T02:42:32;8.48;;;1.88;;
43807;SDS011;29438;50.664;10.098;2023-04-03T02:44:58;3.15;;;1.15;;
43807;SDS011;29438;50.664;10.098;2023-04-03T02:47:25;4.60;;;1.10;;
43807;SDS011;29438;50.664;10.098;2023-04-03T02:49:51;5.70;;;1.17;;
43807;SDS011;29438;50.664;10.098;2023-04-03T02:52:17;2.55;;;1.00;;
43807;SDS011;29438;50.664;10.098;2023-04-03T02:54:43;4.88;;;1.38;;
43807;SDS011;29438;50.664;10.098;2023-04-03T02:57:08;6.50;;;1.65;;
43807;SDS011;29438;50.664;10.098;2023-04-03T02:59:35;3.58;;;1.30;;
43807;SDS011;29438;50.664;10.098;2023-04-03T03:02:01;4.50;;;1.33;;
43807;SDS011;29438;50.664;10.098;2023-04-03T03:04:26;3.97;;;1.70;;
43807;SDS011;29438;50.664;10.098;2023-04-03T03:06:52;5.70;;;2.00;;
43807;SDS011;29438;50.664;10.098;2023-04-03T03:09:18;5.53;;;1.90;;
43807;SDS011;29438;50.664;10.098;2023-04-03T03:11:43;4.95;;;1.75;;
43807;SDS011;29438;50.664;10.098;2023-04-03T03:14:09;5.97;;;2.03;;
43807;SDS011;29438;50.664;10.098;2023-04-03T03:16:35;5.75;;;1.90;;
43807;SDS011;29438;50.664;10.098;2023-04-03T03:19:00;3.15;;;1.02;;
43807;SDS011;29438;50.664;10.098;2023-04-03T03:21:26;5.50;;;1.85;;
43807;SDS011;29438;50.664;10.098;2023-04-03T03:23:51;10.00;;;1.70;;
43807;SDS011;29438;50.664;10.098;2023-04-03T03:26:17;4.25;;;1.73;;
43807;SDS011;29438;50.664;10.098;2023-04-03T03:28:42;10.43;;;1.50;;
43807;SDS011;29438;50.664;10.098;2023-04-03T03:31:08;5.13;;;1.85;;
43807;SDS011;29438;50.664;10.098;2023-04-03T03:33:35;6.10;;;1.70;;
43807;SDS011;29438;50.664;10.098;2023-04-03T03:36:00;6.38;;;2.03;;
43807;SDS011;29438;50.664;10.098;2023-04-03T03:38:26;8.02;;;2.00;;
43807;SDS011;29438;50.664;10.098;2023-04-03T03:40:51;10.43;;;2.60;;
43807;SDS011;29438;50.664;10.098;2023-04-03T03:43:17;3.25;;;1.38;;
43807;SDS011;29438;50.664;10.098;2023-04-03T03:45:43;4.32;;;2.00;;
43807;SDS011;29438;50.664;10.098;2023-04-03T03:48:10;5.75;;;2.47;;
43807;SDS011;29438;50.664;10.098;2023-04-03T03:50:36;7.15;;;2.20;;
43807;SDS011;29438;50.664;10.098;2023-04-03T03:53:01;6.28;;;2.08;;
43807;SDS011;29438;50.664;10.098;2023-04-03T03:55:27;4.97;;;2.40;;
43807;SDS011;29438;50.664;10.098;2023-04-03T03:57:53;4.70;;;2.00;;
43807;SDS011;29438;50.664;10.098;2023-04-03T04:00:18;6.80;;;2.10;;
43807;SDS011;29438;50.664;10.098;2023-04-03T04:02:44;4.97;;;2.10;;
43807;SDS011;29438;50.664;10.098;2023-04-03T04:05:10;6.35;;;2.33;;
43807;SDS011;29438;50.664;10.098;2023-04-03T04:07:36;7.03;;;2.20;;
43807;SDS011;29438;50.664;10.098;2023-04-03T04:10:01;7.20;;;2.40;;
43807;SDS011;29438;50.664;10.098;2023-04-03T04:12:27;4.70;;;2.15;;
43807;SDS011;29438;50.664;10.098;2023-04-03T04:14:53;5.90;;;2.30;;
43807;SDS011;29438;50.664;10.098;2023-04-03T04:17:18;3.17;;;1.83;;
43807;SDS011;29438;50.664;10.098;2023-04-03T04:19:44;6.13;;;2.22;;
43807;SDS011;29438;50.664;10.098;2023-04-03T04:22:10;9.73;;;2.85;;
43807;SDS011;29438;50.664;10.098;2023-04-03T04:24:35;5.07;;;2.22;;
43807;SDS011;29438;50.664;10.098;2023-04-03T04:27:01;7.28;;;2.20;;
43807;SDS011;29438;50.664;10.098;2023-04-03T04:29:26;7.28;;;2.20;;
43807;SDS011;29438;50.664;10.098;2023-04-03T04:31:52;6.18;;;2.20;;
43807;SDS011;29438;50.664;10.098;2023-04-03T04:34:17;6.60;;;2.28;;
43807;SDS011;29438;50.664;10.098;2023-04-03T04:36:43;2.42;;;1.48;;
43807;SDS011;29438;50.664;10.098;2023-04-03T04:39:08;6.50;;;2.75;;
43807;SDS011;29438;50.664;10.098;2023-04-03T04:41:34;4.53;;;2.05;;
43807;SDS011;29438;50.664;10.098;2023-04-03T04:44:00;4.70;;;1.55;;
43807;SDS011;29438;50.664;10.098;2023-04-03T04:46:25;9.18;;;2.15;;
43807;SDS011;29438;50.664;10.098;2023-04-03T04:48:51;5.07;;;2.38;;
43807;SDS011;29438;50.664;10.098;2023-04-03T04:51:17;4.32;;;2.00;;
43807;SDS011;29438;50.664;10.098;2023-04-03T04:53:42;5.43;;;2.05;;
43807;SDS011;29438;50.664;10.098;2023-04-03T04:56:08;7.78;;;2.30;;
43807;SDS011;29438;50.664;10.098;2023-04-03T04:58:34;5.43;;;2.40;;
43807;SDS011;29438;50.664;10.098;2023-04-03T05:01:00;5.55;;;2.17;;
43807;SDS011;29438;50.664;10.098;2023-04-03T05:03:31;5.03;;;2.13;;
43807;SDS011;29438;50.664;10.098;2023-04-03T05:05:56;4.25;;;2.22;;
43807;SDS011;29438;50.664;10.098;2023-04-03T05:08:22;5.13;;;1.80;;
43807;SDS011;29438;50.664;10.098;2023-04-03T05:10:48;5.30;;;2.03;;
43807;SDS011;29438;50.664;10.098;2023-04-03T05:13:13;6.75;;;2.95;;
43807;SDS011;29438;50.664;10.098;2023-04-03T05:15:39;10.05;;;2.55;;
43807;SDS011;29438;50.664;10.098;2023-04-03T05:18:05;8.88;;;2.80;;
43807;SDS011;29438;50.664;10.098;2023-04-03T05:20:31;9.35;;;2.58;;
43807;SDS011;29438;50.664;10.098;2023-04-03T05:22:57;7.13;;;3.05;;
43807;SDS011;29438;50.664;10.098;2023-04-03T05:25:22;7.13;;;2.92;;
43807;SDS011;29438;50.664;10.098;2023-04-03T05:27:48;4.50;;;2.13;;
43807;SDS011;29438;50.664;10.098;2023-04-03T05:30:14;6.30;;;2.95;;
43807;SDS011;29438;50.664;10.098;2023-04-03T05:32:40;4.05;;;1.40;;
43807;SDS011;29438;50.664;10.098;2023-04-03T05:35:06;7.43;;;2.40;;
43807;SDS011;29438;50.664;10.098;2023-04-03T05:37:32;4.82;;;2.15;;
43807;SDS011;29438;50.664;10.098;2023-04-03T05:39:58;5.68;;;2.17;;
43807;SDS011;29438;50.664;10.098;2023-04-03T05:42:26;8.07;;;2.78;;
43807;SDS011;29438;50.664;10.098;2023-04-03T05:44:51;6.40;;;2.50;;
43807;SDS011;29438;50.664;10.098;2023-04-03T05:47:17;8.23;;;2.90;;
43807;SDS011;29438;50.664;10.098;2023-04-03T05:49:43;10.77;;;2.80;;
43807;SDS011;29438;50.664;10.098;2023-04-03T05:52:27;8.55;;;3.22;;
43807;SDS011;29438;50.664;10.098;2023-04-03T05:54:54;8.75;;;2.75;;
43807;SDS011;29438;50.664;10.098;2023-04-03T05:57:20;5.22;;;1.77;;
43807;SDS011;29438;50.664;10.098;2023-04-03T05:59:46;6.78;;;2.70;;
43807;SDS011;29438;50.664;10.098;2023-04-03T06:02:12;7.28;;;2.38;;
43807;SDS011;29438;50.664;10.098;2023-04-03T06:04:41;9.07;;;3.35;;
43807;SDS011;29438;50.664;10.098;2023-04-03T06:07:06;6.57;;;3.05;;
43807;SDS011;29438;50.664;10.098;2023-04-03T06:09:35;7.28;;;2.67;;
43807;SDS011;29438;50.664;10.098;2023-04-03T06:12:01;5.30;;;2.58;;
43807;SDS011;29438;50.664;10.098;2023-04-03T06:14:26;9.25;;;3.30;;
43807;SDS011;29438;50.664;10.098;2023-04-03T06:16:52;11.30;;;3.45;;
43807;SDS011;29438;50.664;10.098;2023-04-03T06:19:19;6.80;;;2.97;;
43807;SDS011;29438;50.664;10.098;2023-04-03T06:21:45;7.93;;;2.83;;
43807;SDS011;29438;50.664;10.098;2023-04-03T06:24:12;6.18;;;2.47;;
43807;SDS011;29438;50.664;10.098;2023-04-03T06:26:40;7.53;;;3.63;;
43807;SDS011;29438;50.664;10.098;2023-04-03T06:29:05;7.90;;;3.40;;
43807;SDS011;29438;50.664;10.098;2023-04-03T06:31:31;7.05;;;2.85;;
43807;SDS011;29438;50.664;10.098;2023-04-03T06:33:56;11.52;;;3.72;;
43807;SDS011;29438;50.664;10.098;2023-04-03T06:36:22;7.07;;;3.28;;
43807;SDS011;29438;50.664;10.098;2023-04-03T06:38:48;8.75;;;3.55;;
43807;SDS011;29438;50.664;10.098;2023-04-03T06:41:13;9.45;;;3.38;;
43807;SDS011;29438;50.664;10.098;2023-04-03T06:43:41;7.95;;;3.22;;
43807;SDS011;29438;50.664;10.098;2023-04-03T06:46:10;10.80;;;3.70;;
43807;SDS011;29438;50.664;10.098;2023-04-03T06:48:42;7.28;;;3.25;;
43807;SDS011;29438;50.664;10.098;2023-04-03T06:51:21;8.88;;;4.35;;
43807;SDS011;29438;50.664;10.098;2023-04-03T06:53:52;8.77;;;2.75;;
43807;SDS011;29438;50.664;10.098;2023-04-03T06:56:19;10.40;;;4.15;;
43807;SDS011;29438;50.664;10.098;2023-04-03T06:58:46;6.53;;;3.25;;
43807;SDS011;29438;50.664;10.098;2023-04-03T07:01:12;10.85;;;4.40;;
43807;SDS011;29438;50.664;10.098;2023-04-03T07:03:39;8.93;;;3.75;;
43807;SDS011;29438;50.664;10.098;2023-04-03T07:06:06;8.70;;;3.75;;
43807;SDS011;29438;50.664;10.098;2023-04-03T07:08:33;8.25;;;3.75;;
43807;SDS011;29438;50.664;10.098;2023-04-03T07:10:58;7.45;;;3.42;;
43807;SDS011;29438;50.664;10.098;2023-04-03T07:13:24;9.48;;;4.40;;
43807;SDS011;29438;50.664;10.098;2023-04-03T07:15:51;6.50;;;3.35;;
43807;SDS011;29438;50.664;10.098;2023-04-03T07:18:16;9.05;;;3.20;;
43807;SDS011;29438;50.664;10.098;2023-04-03T07:20:42;8.95;;;3.25;;
43807;SDS011;29438;50.664;10.098;2023-04-03T07:23:08;5.45;;;2.90;;
43807;SDS011;29438;50.664;10.098;2023-04-03T07:25:33;7.50;;;2.90;;
43807;SDS011;29438;50.664;10.098;2023-04-03T07:27:59;5.63;;;2.42;;
43807;SDS011;29438;50.664;10.098;2023-04-03T07:30:25;5.05;;;1.90;;
43807;SDS011;29438;50.664;10.098;2023-04-03T07:32:51;7.20;;;2.45;;
43807;SDS011;29438;50.664;10.098;2023-04-03T07:35:17;8.23;;;3.25;;
43807;SDS011;29438;50.664;10.098;2023-04-03T07:37:43;5.03;;;2.38;;
43807;SDS011;29438;50.664;10.098;2023-04-03T07:40:08;6.85;;;2.67;;
43807;SDS011;29438;50.664;10.098;2023-04-03T07:42:34;7.00;;;2.83;;
43807;SDS011;29438;50.664;10.098;2023-04-03T07:45:01;5.63;;;3.03;;
43807;SDS011;29438;50.664;10.098;2023-04-03T07:47:27;7.07;;;2.83;;
43807;SDS011;29438;50.664;10.098;2023-04-03T07:49:53;5.65;;;3.10;;
43807;SDS011;29438;50.664;10.098;2023-04-03T07:52:18;5.55;;;2.30;;
43807;SDS011;29438;50.664;10.098;2023-04-03T07:54:44;7.30;;;2.90;;
43807;SDS011;29438;50.664;10.098;2023-04-03T07:57:09;6.35;;;2.70;;
43807;SDS011;29438;50.664;10.098;2023-04-03T07:59:35;6.68;;;2.75;;
43807;SDS011;29438;50.664;10.098;2023-04-03T08:02:01;4.45;;;2.20;;
43807;SDS011;29438;50.664;10.098;2023-04-03T08:04:26;11.02;;;3.70;;
43807;SDS011;29438;50.664;10.098;2023-04-03T08:06:52;5.95;;;2.65;;
43807;SDS011;29438;50.664;10.098;2023-04-03T08:09:17;7.95;;;3.97;;
43807;SDS011;29438;50.664;10.098;2023-04-03T08:11:44;4.72;;;2.50;;
43807;SDS011;29438;50.664;10.098;2023-04-03T08:14:10;7.15;;;2.20;;
43807;SDS011;29438;50.664;10.098;2023-04-03T08:16:41;5.78;;;2.42;;
43807;SDS011;29438;50.664;10.098;2023-04-03T08:19:08;5.40;;;2.38;;
43807;SDS011;29438;50.664;10.098;2023-04-03T08:21:33;6.47;;;3.08;;
43807;SDS011;29438;50.664;10.098;2023-04-03T08:23:59;6.20;;;2.40;;
43807;SDS011;29438;50.664;10.098;2023-04-03T08:26:24;4.57;;;2.33;;
43807;SDS011;29438;50.664;10.098;2023-04-03T08:28:51;5.53;;;2.22;;
43807;SDS011;29438;50.664;10.098;2023-04-03T08:31:17;3.97;;;1.90;;
43807;SDS011;29438;50.664;10.098;2023-04-03T08:33:44;5.53;;;1.75;;
43807;SDS011;29438;50.664;10.098;2023-04-03T08:36:20;6.85;;;3.65;;
43807;SDS011;29438;50.664;10.098;2023-04-03T08:38:49;8.13;;;3.88;;
43807;SDS011;29438;50.664;10.098;2023-04-03T08:44:02;4.50;;;1.90;;
43807;SDS011;29438;50.664;10.098;2023-04-03T08:49:12;6.47;;;2.72;;
43807;SDS011;29438;50.664;10.098;2023-04-03T08:51:51;5.00;;;2.92;;
43807;SDS011;29438;50.664;10.098;2023-04-03T08:54:23;4.90;;;2.38;;
43807;SDS011;29438;50.664;10.098;2023-04-03T08:56:57;5.53;;;2.42;;
43807;SDS011;29438;50.664;10.098;2023-04-03T08:59:35;4.82;;;2.35;;
43807;SDS011;29438;50.664;10.098;2023-04-03T09:02:04;4.85;;;2.55;;
43807;SDS011;29438;50.664;10.098;2023-04-03T09:04:49;5.65;;;2.53;;
43807;SDS011;29438;50.664;10.098;2023-04-03T09:07:17;6.63;;;2.83;;
43807;SDS011;29438;50.664;10.098;2023-04-03T09:10:02;2.47;;;1.25;;
43807;SDS011;29438;50.664;10.098;2023-04-03T09:12:33;5.55;;;1.85;;
43807;SDS011;29438;50.664;10.098;2023-04-03T09:15:10;4.03;;;1.63;;
43807;SDS011;29438;50.664;10.098;2023-04-03T09:23:18;4.80;;;1.45;;
43807;SDS011;29438;50.664;10.098;2023-04-03T09:25:48;2.70;;;1.10;;
43807;SDS011;29438;50.664;10.098;2023-04-03T09:28:14;4.43;;;1.20;;
43807;SDS011;29438;50.664;10.098;2023-04-03T09:30:40;3.78;;;1.20;;
43807;SDS011;29438;50.664;10.098;2023-04-03T09:33:06;3.42;;;1.15;;
43807;SDS011;29438;50.664;10.098;2023-04-03T09:35:32;5.05;;;1.75;;
43807;SDS011;29438;50.664;10.098;2023-04-03T09:38:01;4.28;;;1.60;;
43807;SDS011;29438;50.664;10.098;2023-04-03T09:40:35;7.20;;;2.28;;
43807;SDS011;29438;50.664;10.098;2023-04-03T09:43:19;5.65;;;2.30;;
43807;SDS011;29438;50.664;10.098;2023-04-03T09:45:47;10.13;;;2.72;;
43807;SDS011;29438;50.664;10.098;2023-04-03T09:50:52;6.13;;;2.10;;
43807;SDS011;29438;50.664;10.098;2023-04-03T09:55:55;8.18;;;2.40;;
43807;SDS011;29438;50.664;10.098;2023-04-03T09:58:23;5.88;;;2.55;;
43807;SDS011;29438;50.664;10.098;2023-04-03T10:00:58;4.60;;;1.90;;
43807;SDS011;29438;50.664;10.098;2023-04-03T10:03:33;5.18;;;2.20;;
43807;SDS011;29438;50.664;10.098;2023-04-03T10:06:00;3.35;;;1.50;;
43807;SDS011;29438;50.664;10.098;2023-04-03T10:08:31;2.92;;;1.30;;
43807;SDS011;29438;50.664;10.098;2023-04-03T10:14:00;3.50;;;1.10;;
43807;SDS011;29438;50.664;10.098;2023-04-03T10:16:32;3.33;;;1.17;;
43807;SDS011;29438;50.664;10.098;2023-04-03T10:21:58;2.85;;;0.60;;
43807;SDS011;29438;50.664;10.098;2023-04-03T10:29:50;1.67;;;0.60;;
43807;SDS011;29438;50.664;10.098;2023-04-03T10:32:26;0.90;;;0.25;;
43807;SDS011;29438;50.664;10.098;2023-04-03T10:38:21;1.92;;;0.43;;
43807;SDS011;29438;50.664;10.098;2023-04-03T10:46:17;0.88;;;0.20;;
43807;SDS011;29438;50.664;10.098;2023-04-03T10:51:45;1.08;;;0.20;;
43807;SDS011;29438;50.664;10.098;2023-04-03T10:55:04;0.88;;;0.20;;
43807;SDS011;29438;50.664;10.098;2023-04-03T10:57:21;1.52;;;0.30;;
43807;SDS011;29438;50.664;10.098;2023-04-03T10:59:50;2.50;;;0.40;;
43807;SDS011;29438;50.664;10.098;2023-04-03T11:02:24;2.00;;;0.40;;
43807;SDS011;29438;50.664;10.098;2023-04-03T11:04:52;1.83;;;0.30;;
43807;SDS011;29438;50.664;10.098;2023-04-03T11:07:21;2.03;;;0.40;;
43807;SDS011;29438;50.664;10.098;2023-04-03T11:09:55;1.08;;;0.43;;
43807;SDS011;29438;50.664;10.098;2023-04-03T11:12:28;3.45;;;0.40;;
43807;SDS011;29438;50.664;10.098;2023-04-03T11:17:41;1.40;;;0.40;;
43807;SDS011;29438;50.664;10.098;2023-04-03T11:20:30;2.30;;;0.40;;
43807;SDS011;29438;50.664;10.098;2023-04-03T11:23:06;0.80;;;0.30;;
43807;SDS011;29438;50.664;10.098;2023-04-03T11:25:46;1.77;;;0.55;;
43807;SDS011;29438;50.664;10.098;2023-04-03T11:28:17;1.30;;;0.20;;
43807;SDS011;29438;50.664;10.098;2023-04-03T11:30:52;1.67;;;0.30;;
43807;SDS011;29438;50.664;10.098;2023-04-03T11:33:28;1.00;;;0.30;;
43807;SDS011;29438;50.664;10.098;2023-04-03T11:35:58;2.30;;;0.30;;
43807;SDS011;29438;50.664;10.098;2023-04-03T11:38:31;1.05;;;0.30;;
43807;SDS011;29438;50.664;10.098;2023-04-03T11:41:01;0.93;;;0.30;;
43807;SDS011;29438;50.664;10.098;2023-04-03T11:43:30;1.00;;;0.30;;
43807;SDS011;29438;50.664;10.098;2023-04-03T11:50:54;2.13;;;0.40;;
43807;SDS011;29438;50.664;10.098;2023-04-03T11:56:03;1.58;;;0.20;;
43807;SDS011;29438;50.664;10.098;2023-04-03T12:04:12;2.30;;;0.43;;
43807;SDS011;29438;50.664;10.098;2023-04-03T12:17:46;2.03;;;0.60;;
43807;SDS011;29438;50.664;10.098;2023-04-03T12:26:40;3.42;;;1.10;;
43807;SDS011;29438;50.664;10.098;2023-04-03T12:28:47;3.95;;;0.80;;
43807;SDS011;29438;50.664;10.098;2023-04-03T12:31:17;2.72;;;0.57;;
43807;SDS011;29438;50.664;10.098;2023-04-03T12:36:17;2.88;;;0.80;;
43807;SDS011;29438;50.664;10.098;2023-04-03T12:39:00;10.10;;;2.90;;
43807;SDS011;29438;50.664;10.098;2023-04-03T12:44:53;2.58;;;0.80;;
43807;SDS011;29438;50.664;10.098;2023-04-03T12:47:19;3.45;;;0.95;;
43807;SDS011;29438;50.664;10.098;2023-04-03T12:52:51;3.47;;;0.98;;
43807;SDS011;29438;50.664;10.098;2023-04-03T12:55:24;3.55;;;1.23;;
43807;SDS011;29438;50.664;10.098;2023-04-03T12:57:50;2.03;;;0.52;;
43807;SDS011;29438;50.664;10.098;2023-04-03T13:02:53;1.63;;;0.32;;
43807;SDS011;29438;50.664;10.098;2023-04-03T13:05:19;2.35;;;0.47;;
43807;SDS011;29438;50.664;10.098;2023-04-03T13:07:50;2.65;;;0.60;;
43807;SDS011;29438;50.664;10.098;2023-04-03T13:10:22;1.15;;;0.57;;
43807;SDS011;29438;50.664;10.098;2023-04-03T13:12:55;1.00;;;0.30;;
43807;SDS011;29438;50.664;10.098;2023-04-03T13:15:24;2.35;;;0.57;;
43807;SDS011;29438;50.664;10.098;2023-04-03T13:18:05;2.25;;;0.65;;
43807;SDS011;29438;50.664;10.098;2023-04-03T13:20:45;1.20;;;0.10;;
43807;SDS011;29438;50.664;10.098;2023-04-03T13:23:13;0.98;;;0.40;;
43807;SDS011;29438;50.664;10.098;2023-04-03T13:25:45;3.05;;;0.55;;
43807;SDS011;29438;50.664;10.098;2023-04-03T13:28:13;3.08;;;0.40;;
43807;SDS011;29438;50.664;10.098;2023-04-03T13:30:53;1.20;;;0.40;;
43807;SDS011;29438;50.664;10.098;2023-04-03T13:33:23;1.23;;;0.47;;
43807;SDS011;29438;50.664;10.098;2023-04-03T13:35:54;3.67;;;0.60;;
43807;SDS011;29438;50.664;10.098;2023-04-03T13:38:57;2.47;;;0.63;;
43807;SDS011;29438;50.664;10.098;2023-04-03T13:41:25;1.25;;;0.30;;
43807;SDS011;29438;50.664;10.098;2023-04-03T13:43:54;2.47;;;0.80;;
43807;SDS011;29438;50.664;10.098;2023-04-03T13:46:22;1.67;;;0.45;;
43807;SDS011;29438;50.664;10.098;2023-04-03T13:48:51;2.10;;;0.60;;
43807;SDS011;29438;50.664;10.098;2023-04-03T13:51:21;1.48;;;0.30;;
43807;SDS011;29438;50.664;10.098;2023-04-03T13:53:59;0.95;;;0.30;;
43807;SDS011;29438;50.664;10.098;2023-04-03T13:56:33;1.88;;;0.50;;
43807;SDS011;29438;50.664;10.098;2023-04-03T13:59:19;1.60;;;0.55;;
43807;SDS011;29438;50.664;10.098;2023-04-03T14:01:56;1.95;;;0.50;;
43807;SDS011;29438;50.664;10.098;2023-04-03T14:04:47;3.38;;;0.40;;
43807;SDS011;29438;50.664;10.098;2023-04-03T14:07:18;2.17;;;0.52;;
43807;SDS011;29438;50.664;10.098;2023-04-03T14:09:44;1.75;;;0.80;;
43807;SDS011;29438;50.664;10.098;2023-04-03T14:12:15;1.92;;;0.43;;
43807;SDS011;29438;50.664;10.098;2023-04-03T14:14:59;1.40;;;0.52;;
43807;SDS011;29438;50.664;10.098;2023-04-03T14:17:26;2.45;;;0.70;;
43807;SDS011;29438;50.664;10.098;2023-04-03T14:19:52;3.63;;;0.90;;
43807;SDS011;29438;50.664;10.098;2023-04-03T14:24:54;1.80;;;0.43;;
43807;SDS011;29438;50.664;10.098;2023-04-03T14:27:22;1.85;;;0.57;;
43807;SDS011;29438;50.664;10.098;2023-04-03T14:29:50;1.30;;;0.40;;
43807;SDS011;29438;50.664;10.098;2023-04-03T14:32:18;1.80;;;0.57;;
43807;SDS011;29438;50.664;10.098;2023-04-03T14:34:46;2.15;;;0.43;;
43807;SDS011;29438;50.664;10.098;2023-04-03T14:37:13;2.25;;;0.40;;
43807;SDS011;29438;50.664;10.098;2023-04-03T14:39:42;1.33;;;0.50;;
43807;SDS011;29438;50.664;10.098;2023-04-03T14:42:41;2.40;;;0.70;;
43807;SDS011;29438;50.664;10.098;2023-04-03T14:45:02;1.60;;;0.30;;
43807;SDS011;29438;50.664;10.098;2023-04-03T14:47:33;1.70;;;0.50;;
43807;SDS011;29438;50.664;10.098;2023-04-03T14:50:02;2.00;;;0.50;;
43807;SDS011;29438;50.664;10.098;2023-04-03T14:52:31;1.15;;;0.32;;
43807;SDS011;29438;50.664;10.098;2023-04-03T14:54:58;1.50;;;0.47;;
43807;SDS011;29438;50.664;10.098;2023-04-03T14:57:25;2.22;;;0.38;;
43807;SDS011;29438;50.664;10.098;2023-04-03T14:59:53;2.20;;;0.40;;
43807;SDS011;29438;50.664;10.098;2023-04-03T15:02:25;2.30;;;0.30;;
43807;SDS011;29438;50.664;10.098;2023-04-03T15:04:56;3.78;;;0.82;;
43807;SDS011;29438;50.664;10.098;2023-04-03T15:07:28;2.67;;;0.40;;
43807;SDS011;29438;50.664;10.098;2023-04-03T15:09:56;0.95;;;0.38;;
43807;SDS011;29438;50.664;10.098;2023-04-03T15:12:22;4.32;;;0.50;;
43807;SDS011;29438;50.664;10.098;2023-04-03T15:14:48;1.20;;;0.30;;
43807;SDS011;29438;50.664;10.098;2023-04-03T15:17:15;2.53;;;0.38;;
43807;SDS011;29438;50.664;10.098;2023-04-03T15:19:43;1.27;;;0.30;;
43807;SDS011;29438;50.664;10.098;2023-04-03T15:22:13;3.30;;;0.38;;
43807;SDS011;29438;50.664;10.098;2023-04-03T15:24:40;1.00;;;0.30;;
43807;SDS011;29438;50.664;10.098;2023-04-03T15:27:05;1.55;;;0.45;;
43807;SDS011;29438;50.664;10.098;2023-04-03T15:29:31;3.17;;;0.50;;
43807;SDS011;29438;50.664;10.098;2023-04-03T15:31:56;0.90;;;0.20;;
43807;SDS011;29438;50.664;10.098;2023-04-03T15:34:22;0.88;;;0.20;;
43807;SDS011;29438;50.664;10.098;2023-04-03T15:36:47;0.90;;;0.30;;
43807;SDS011;29438;50.664;10.098;2023-04-03T15:39:13;3.75;;;0.40;;
43807;SDS011;29438;50.664;10.098;2023-04-03T15:41:41;4.20;;;0.30;;
43807;SDS011;29438;50.664;10.098;2023-04-03T15:44:07;1.88;;;0.30;;
43807;SDS011;29438;50.664;10.098;2023-04-03T15:46:32;2.35;;;0.30;;
43807;SDS011;29438;50.664;10.098;2023-04-03T15:48:58;2.40;;;0.50;;
43807;SDS011;29438;50.664;10.098;2023-04-03T15:51:23;1.52;;;0.40;;
43807;SDS011;29438;50.664;10.098;2023-04-03T15:53:49;1.10;;;0.30;;
43807;SDS011;29438;50.664;10.098;2023-04-03T15:56:15;1.90;;;0.30;;
43807;SDS011;29438;50.664;10.098;2023-04-03T15:58:40;2.15;;;0.30;;
43807;SDS011;29438;50.664;10.098;2023-04-03T16:01:06;1.83;;;0.50;;
43807;SDS011;29438;50.664;10.098;2023-04-03T16:03:34;3.13;;;0.30;;
43807;SDS011;29438;50.664;10.098;2023-04-03T16:06:00;2.65;;;0.32;;
43807;SDS011;29438;50.664;10.098;2023-04-03T16:08:26;1.52;;;0.40;;
43807;SDS011;29438;50.664;10.098;2023-04-03T16:10:52;3.60;;;0.43;;
43807;SDS011;29438;50.664;10.098;2023-04-03T16:13:17;3.90;;;0.50;;